sensor_id;sensor_type;location;lat;lon;timestamp;pressure;altitude;pressure_sealevel;temperature;humidity
64827;BME280;51265;53.972;12.286;2023-04-07T00:01:27;101384.72;;;-0.17;100.00
64827;BME280;51265;53.972;12.286;2023-04-07T00:03:53;101390.38;;;-0.12;100.00
64827;BME280;51265;53.972;12.286;2023-04-07T00:06:20;101384.94;;;-0.18;100.00
64827;BME280;51265;53.972;12.286;2023-04-07T00:08:46;101385.97;;;-0.26;100.00
64827;BME280;51265;53.972;12.286;2023-04-07T00:11:12;101381.19;;;-0.31;100.00
64827;BME280;51265;53.972;12.286;2023-04-07T00:13:39;101393.09;;;-0.25;100.00
64827;BME280;51265;53.972;12.286;2023-04-07T00:16:05;101393.72;;;-0.16;100.00
64827;BME280;51265;53.972;12.286;2023-04-07T00:18:32;101399.09;;;-0.10;100.00
64827;BME280;51265;53.972;12.286;2023-04-07T00:20:58;101390.34;;;-0.18;100.00
64827;BME280;51265;53.972;12.286;2023-04-07T00:23:24;101386.63;;;-0.31;100.00
64827;BME280;51265;53.972;12.286;2023-04-07T00:25:52;101381.22;;;-0.37;100.00
64827;BME280;51265;53.972;12.286;2023-04-07T00:28:19;101389.09;;;-0.42;100.00
64827;BME280;51265;53.972;12.286;2023-04-07T00:30:45;101394.09;;;-0.39;100.00
64827;BME280;51265;53.972;12.286;2023-04-07T00:33:11;101384.34;;;-0.40;100.00
64827;BME280;51265;53.972;12.286;2023-04-07T00:35:38;101390.34;;;-0.38;100.00
64827;BME280;51265;53.972;12.286;2023-04-07T00:38:04;101387.44;;;-0.43;100.00
64827;BME280;51265;53.972;12.286;2023-04-07T00:40:31;101388.28;;;-0.49;100.00
64827;BME280;51265;53.972;12.286;2023-04-07T00:42:58;101388.91;;;-0.54;100.00
64827;BME280;51265;53.972;12.286;2023-04-07T00:45:24;101385.34;;;-0.55;100.00
64827;BME280;51265;53.972;12.286;2023-04-07T00:47:51;101397.84;;;-0.54;100.00
64827;BME280;51265;53.972;12.286;2023-04-07T00:50:17;101388.06;;;-0.55;100.00
64827;BME280;51265;53.972;12.286;2023-04-07T00:52:44;101386.38;;;-0.56;100.00
64827;BME280;51265;53.972;12.286;2023-04-07T00:55:11;101387.84;;;-0.60;100.00
64827;BME280;51265;53.972;12.286;2023-04-07T00:57:37;101384.53;;;-0.62;100.00
64827;BME280;51265;53.972;12.286;2023-04-07T01:00:05;101389.28;;;-0.64;100.00
64827;BME280;51265;53.972;12.286;2023-04-07T01:02:39;101374.94;;;-0.71;100.00
64827;BME280;51265;53.972;12.286;2023-04-07T01:10:28;101394.72;;;-0.44;100.00
64827;BME280;51265;53.972;12.286;2023-04-07T01:13:09;101384.13;;;-0.45;100.00
64827;BME280;51265;53.972;12.286;2023-04-07T01:15:39;101385.38;;;-0.48;100.00
64827;BME280;51265;53.972;12.286;2023-04-07T01:18:18;101376.19;;;-0.60;100.00
64827;BME280;51265;53.972;12.286;2023-04-07T01:20:47;101377.84;;;-0.66;100.00
64827;BME280;51265;53.972;12.286;2023-04-07T01:23:44;101374.09;;;-0.78;100.00
64827;BME280;51265;53.972;12.286;2023-04-07T01:26:25;101374.94;;;-0.78;100.00
64827;BME280;51265;53.972;12.286;2023-04-07T01:31:38;101369.50;;;-0.84;100.00
64827;BME280;51265;53.972;12.286;2023-04-07T01:34:09;101368.47;;;-0.83;100.00
64827;BME280;51265;53.972;12.286;2023-04-07T01:36:37;101369.94;;;-0.87;100.00
64827;BME280;51265;53.972;12.286;2023-04-07T01:39:04;101370.94;;;-0.88;100.00
64827;BME280;51265;53.972;12.286;2023-04-07T01:41:32;101375.34;;;-0.87;100.00
64827;BME280;51265;53.972;12.286;2023-04-07T01:44:00;101369.94;;;-0.87;100.00
64827;BME280;51265;53.972;12.286;2023-04-07T01:46:28;101370.31;;;-0.90;100.00
64827;BME280;51265;53.972;12.286;2023-04-07T01:48:55;101369.47;;;-0.97;100.00
64827;BME280;51265;53.972;12.286;2023-04-07T01:51:22;101368.44;;;-1.03;100.00
64827;BME280;51265;53.972;12.286;2023-04-07T01:53:51;101370.69;;;-1.07;100.00
64827;BME280;51265;53.972;12.286;2023-04-07T01:56:17;101373.19;;;-1.12;100.00
64827;BME280;51265;53.972;12.286;2023-04-07T01:58:48;101368.19;;;-1.15;100.00
64827;BME280;51265;53.972;12.286;2023-04-07T02:01:17;101377.56;;;-1.11;100.00
64827;BME280;51265;53.972;12.286;2023-04-07T02:03:55;101375.69;;;-1.10;100.00
64827;BME280;51265;53.972;12.286;2023-04-07T02:06:31;101376.50;;;-1.10;100.00
64827;BME280;51265;53.972;12.286;2023-04-07T02:09:04;101374.88;;;-1.04;100.00
64827;BME280;51265;53.972;12.286;2023-04-07T02:11:33;101380.28;;;-0.97;100.00
64827;BME280;51265;53.972;12.286;2023-04-07T02:14:05;101373.44;;;-0.93;100.00
64827;BME280;51265;53.972;12.286;2023-04-07T02:16:41;101378.22;;;-0.95;100.00
64827;BME280;51265;53.972;12.286;2023-04-07T02:19:08;101378.66;;;-0.85;100.00
64827;BME280;51265;53.972;12.286;2023-04-07T02:21:35;101382.00;;;-0.83;100.00
64827;BME280;51265;53.972;12.286;2023-04-07T02:24:05;101373.69;;;-0.75;100.00
64827;BME280;51265;53.972;12.286;2023-04-07T02:26:35;101372.00;;;-0.76;100.00
64827;BME280;51265;53.972;12.286;2023-04-07T02:29:05;101370.09;;;-0.89;100.00
64827;BME280;51265;53.972;12.286;2023-04-07T02:31:31;101376.59;;;-0.83;100.00
64827;BME280;51265;53.972;12.286;2023-04-07T02:34:00;101383.84;;;-0.84;100.00
64827;BME280;51265;53.972;12.286;2023-04-07T02:36:27;101386.56;;;-0.77;100.00
64827;BME280;51265;53.972;12.286;2023-04-07T02:38:54;101375.75;;;-0.77;100.00
64827;BME280;51265;53.972;12.286;2023-04-07T02:41:20;101382.00;;;-0.83;100.00
64827;BME280;51265;53.972;12.286;2023-04-07T02:43:47;101385.31;;;-0.81;100.00
64827;BME280;51265;53.972;12.286;2023-04-07T02:46:15;101386.97;;;-0.80;100.00
64827;BME280;51265;53.972;12.286;2023-04-07T02:48:41;101385.31;;;-0.81;100.00
64827;BME280;51265;53.972;12.286;2023-04-07T02:51:09;101381.75;;;-0.88;100.00
64827;BME280;51265;53.972;12.286;2023-04-07T02:53:36;101373.84;;;-0.96;100.00
64827;BME280;51265;53.972;12.286;2023-04-07T02:56:04;101383.63;;;-0.95;100.00
64827;BME280;51265;53.972;12.286;2023-04-07T02:58:31;101384.25;;;-0.93;100.00
64827;BME280;51265;53.972;12.286;2023-04-07T03:00:58;101382.38;;;-0.99;100.00
64827;BME280;51265;53.972;12.286;2023-04-07T03:03:28;101380.91;;;-1.02;100.00
64827;BME280;51265;53.972;12.286;2023-04-07T03:06:15;101386.94;;;-0.93;100.00
64827;BME280;51265;53.972;12.286;2023-04-07T03:08:53;101385.69;;;-0.97;100.00
64827;BME280;51265;53.972;12.286;2023-04-07T03:11:20;101394.47;;;-0.82;100.00
64827;BME280;51265;53.972;12.286;2023-04-07T03:13:47;101385.50;;;-0.89;100.00
64827;BME280;51265;53.972;12.286;2023-04-07T03:16:14;101388.63;;;-0.92;100.00
64827;BME280;51265;53.972;12.286;2023-04-07T03:18:54;101388.78;;;-1.01;100.00
64827;BME280;51265;53.972;12.286;2023-04-07T03:21:22;101388.63;;;-0.99;100.00
64827;BME280;51265;53.972;12.286;2023-04-07T03:23:48;101386.97;;;-0.87;100.00
64827;BME280;51265;53.972;12.286;2023-04-07T03:26:15;101389.47;;;-0.85;100.00
64827;BME280;51265;53.972;12.286;2023-04-07T03:28:42;101390.28;;;-0.85;100.00
64827;BME280;51265;53.972;12.286;2023-04-07T03:31:08;101381.97;;;-0.90;100.00
64827;BME280;51265;53.972;12.286;2023-04-07T03:33:35;101388.41;;;-0.97;100.00
64827;BME280;51265;53.972;12.286;2023-04-07T03:36:02;101380.69;;;-1.01;100.00
64827;BME280;51265;53.972;12.286;2023-04-07T03:38:30;101392.34;;;-0.93;100.00
64827;BME280;51265;53.972;12.286;2023-04-07T03:41:00;101393.81;;;-0.97;100.00
64827;BME280;51265;53.972;12.286;2023-04-07T03:43:27;101390.66;;;-1.08;100.00
64827;BME280;51265;53.972;12.286;2023-04-07T03:45:53;101398.13;;;-1.10;100.00
64827;BME280;51265;53.972;12.286;2023-04-07T03:48:21;101393.16;;;-1.06;100.00
64827;BME280;51265;53.972;12.286;2023-04-07T03:50:58;101405.63;;;-1.05;100.00
64827;BME280;51265;53.972;12.286;2023-04-07T03:53:24;101395.66;;;-1.05;100.00
64827;BME280;51265;53.972;12.286;2023-04-07T03:55:52;101401.47;;;-1.08;100.00
64827;BME280;51265;53.972;12.286;2023-04-07T03:58:31;101401.69;;;-1.03;100.00
64827;BME280;51265;53.972;12.286;2023-04-07T04:00:58;101413.59;;;-0.90;100.00
64827;BME280;51265;53.972;12.286;2023-04-07T04:03:24;101409.03;;;-0.83;100.00
64827;BME280;51265;53.972;12.286;2023-04-07T04:06:04;101408.84;;;-0.75;100.00
64827;BME280;51265;53.972;12.286;2023-04-07T04:08:32;101407.78;;;-0.87;100.00
64827;BME280;51265;53.972;12.286;2023-04-07T04:10:58;101412.75;;;-0.84;100.00
64827;BME280;51265;53.972;12.286;2023-04-07T04:13:30;101405.69;;;-0.85;100.00
64827;BME280;51265;53.972;12.286;2023-04-07T04:16:01;101401.50;;;-0.94;100.00
64827;BME280;51265;53.972;12.286;2023-04-07T04:18:28;101407.75;;;-0.94;100.00
64827;BME280;51265;53.972;12.286;2023-04-07T04:20:55;101421.94;;;-0.85;100.00
64827;BME280;51265;53.972;12.286;2023-04-07T04:23:22;101423.41;;;-0.76;100.00
64827;BME280;51265;53.972;12.286;2023-04-07T04:25:52;101423.63;;;-0.78;100.00
64827;BME280;51265;53.972;12.286;2023-04-07T04:28:19;101422.38;;;-0.75;100.00
64827;BME280;51265;53.972;12.286;2023-04-07T04:30:45;101427.38;;;-0.65;100.00
64827;BME280;51265;53.972;12.286;2023-04-07T04:33:13;101424.47;;;-0.64;100.00
64827;BME280;51265;53.972;12.286;2023-04-07T04:35:48;101426.78;;;-0.61;100.00
64827;BME280;51265;53.972;12.286;2023-04-07T04:38:18;101416.56;;;-0.59;100.00
64827;BME280;51265;53.972;12.286;2023-04-07T04:40:52;101427.81;;;-0.62;100.00
64827;BME280;51265;53.972;12.286;2023-04-07T04:43:25;101421.75;;;-0.64;100.00
64827;BME280;51265;53.972;12.286;2023-04-07T04:45:51;101416.13;;;-0.69;100.00
64827;BME280;51265;53.972;12.286;2023-04-07T04:48:21;101428.63;;;-0.55;100.00
64827;BME280;51265;53.972;12.286;2023-04-07T04:50:47;101422.81;;;-0.52;100.00
64827;BME280;51265;53.972;12.286;2023-04-07T04:53:14;101418.88;;;-0.42;100.00
64827;BME280;51265;53.972;12.286;2023-04-07T04:55:49;101419.31;;;-0.45;100.00
64827;BME280;51265;53.972;12.286;2023-04-07T04:58:21;101417.63;;;-0.40;100.00
64827;BME280;51265;53.972;12.286;2023-04-07T05:00:55;101425.34;;;-0.37;100.00
64827;BME280;51265;53.972;12.286;2023-04-07T05:03:34;101415.97;;;-0.34;100.00
64827;BME280;51265;53.972;12.286;2023-04-07T05:06:05;101421.19;;;-0.26;100.00
64827;BME280;51265;53.972;12.286;2023-04-07T05:08:32;101428.03;;;-0.17;100.00
64827;BME280;51265;53.972;12.286;2023-04-07T05:10:59;101435.56;;;0.01;100.00
64827;BME280;51265;53.972;12.286;2023-04-07T05:13:30;101442.00;;;0.07;100.00
64827;BME280;51265;53.972;12.286;2023-04-07T05:16:00;101443.25;;;0.17;100.00
64827;BME280;51265;53.972;12.286;2023-04-07T05:18:26;101440.53;;;0.24;100.00
64827;BME280;51265;53.972;12.286;2023-04-07T05:20:53;101433.66;;;0.28;100.00
64827;BME280;51265;53.972;12.286;2023-04-07T05:23:20;101436.34;;;0.28;100.00
64827;BME280;51265;53.972;12.286;2023-04-07T05:25:49;101434.88;;;0.32;100.00
64827;BME280;51265;53.972;12.286;2023-04-07T05:28:15;101442.38;;;0.37;100.00
64827;BME280;51265;53.972;12.286;2023-04-07T05:30:42;101437.16;;;0.48;100.00
64827;BME280;51265;53.972;12.286;2023-04-07T05:33:09;101436.09;;;0.49;100.00
64827;BME280;51265;53.972;12.286;2023-04-07T05:35:46;101436.09;;;0.56;100.00
64827;BME280;51265;53.972;12.286;2023-04-07T05:38:14;101442.72;;;0.67;100.00
64827;BME280;51265;53.972;12.286;2023-04-07T05:40:42;101439.41;;;0.58;100.00
64827;BME280;51265;53.972;12.286;2023-04-07T05:43:14;101441.50;;;0.63;100.00
64827;BME280;51265;53.972;12.286;2023-04-07T05:45:40;101438.97;;;0.68;100.00
64827;BME280;51265;53.972;12.286;2023-04-07T05:48:07;101443.13;;;0.77;100.00
64827;BME280;51265;53.972;12.286;2023-04-07T05:50:40;101446.44;;;0.79;100.00
64827;BME280;51265;53.972;12.286;2023-04-07T05:53:10;101440.59;;;0.82;100.00
64827;BME280;51265;53.972;12.286;2023-04-07T05:55:37;101444.75;;;0.85;100.00
64827;BME280;51265;53.972;12.286;2023-04-07T05:58:06;101448.50;;;0.90;100.00
64827;BME280;51265;53.972;12.286;2023-04-07T06:00:33;101442.63;;;0.93;100.00
64827;BME280;51265;53.972;12.286;2023-04-07T06:03:06;101459.50;;;1.09;100.00
64827;BME280;51265;53.972;12.286;2023-04-07T06:05:45;101462.13;;;1.22;100.00
64827;BME280;51265;53.972;12.286;2023-04-07T06:08:12;101459.16;;;1.30;100.00
64827;BME280;51265;53.972;12.286;2023-04-07T06:10:39;101467.00;;;1.45;100.00
64827;BME280;51265;53.972;12.286;2023-04-07T06:13:06;101470.28;;;1.54;100.00
64827;BME280;51265;53.972;12.286;2023-04-07T06:15:33;101468.53;;;1.66;100.00
64827;BME280;51265;53.972;12.286;2023-04-07T06:18:00;101472.22;;;1.78;100.00
64827;BME280;51265;53.972;12.286;2023-04-07T06:20:26;101470.47;;;1.90;100.00
64827;BME280;51265;53.972;12.286;2023-04-07T06:22:53;101468.69;;;2.03;100.00
64827;BME280;51265;53.972;12.286;2023-04-07T06:25:20;101465.19;;;2.20;100.00
64827;BME280;51265;53.972;12.286;2023-04-07T06:27:46;101472.88;;;2.30;100.00
64827;BME280;51265;53.972;12.286;2023-04-07T06:30:13;101471.50;;;2.39;100.00
64827;BME280;51265;53.972;12.286;2023-04-07T06:32:40;101467.00;;;2.52;100.00
64827;BME280;51265;53.972;12.286;2023-04-07T06:35:06;101470.94;;;2.74;100.00
64827;BME280;51265;53.972;12.286;2023-04-07T06:37:33;101472.00;;;2.91;100.00
64827;BME280;51265;53.972;12.286;2023-04-07T06:40:00;101462.84;;;3.04;100.00
64827;BME280;51265;53.972;12.286;2023-04-07T06:42:27;101467.91;;;3.19;100.00
64827;BME280;51265;53.972;12.286;2023-04-07T06:45:19;101457.28;;;3.29;100.00
64827;BME280;51265;53.972;12.286;2023-04-07T06:47:46;101456.50;;;3.40;100.00
64827;BME280;51265;53.972;12.286;2023-04-07T06:50:13;101456.94;;;3.56;100.00
64827;BME280;51265;53.972;12.286;2023-04-07T06:52:39;101461.69;;;3.72;100.00
64827;BME280;51265;53.972;12.286;2023-04-07T06:55:06;101456.50;;;3.82;100.00
64827;BME280;51265;53.972;12.286;2023-04-07T06:57:33;101455.72;;;3.93;100.00
64827;BME280;51265;53.972;12.286;2023-04-07T06:59:59;101458.59;;;4.10;100.00
64827;BME280;51265;53.972;12.286;2023-04-07T07:02:26;101443.41;;;4.14;100.00
64827;BME280;51265;53.972;12.286;2023-04-07T07:04:52;101444.00;;;4.28;100.00
64827;BME280;51265;53.972;12.286;2023-04-07T07:07:18;101438.19;;;4.36;100.00
64827;BME280;51265;53.972;12.286;2023-04-07T07:09:45;101430.84;;;4.37;100.00
64827;BME280;51265;53.972;12.286;2023-04-07T07:12:12;101441.84;;;4.54;100.00
64827;BME280;51265;53.972;12.286;2023-04-07T07:14:40;101434.28;;;4.56;100.00
64827;BME280;51265;53.972;12.286;2023-04-07T07:17:06;101439.09;;;4.77;100.00
64827;BME280;51265;53.972;12.286;2023-04-07T07:19:33;101433.97;;;4.81;100.00
64827;BME280;51265;53.972;12.286;2023-04-07T07:22:00;101423.84;;;4.93;100.00
64827;BME280;51265;53.972;12.286;2023-04-07T07:24:26;101433.53;;;5.12;100.00
64827;BME280;51265;53.972;12.286;2023-04-07T07:26:54;101421.19;;;5.10;100.00
64827;BME280;51265;53.972;12.286;2023-04-07T07:29:22;101433.47;;;5.36;100.00
64827;BME280;51265;53.972;12.286;2023-04-07T07:31:48;101431.69;;;5.75;100.00
64827;BME280;51265;53.972;12.286;2023-04-07T07:34:14;101441.38;;;6.11;100.00
64827;BME280;51265;53.972;12.286;2023-04-07T07:36:41;101440.50;;;6.44;100.00
64827;BME280;51265;53.972;12.286;2023-04-07T07:39:07;101431.44;;;6.61;100.00
64827;BME280;51265;53.972;12.286;2023-04-07T07:41:34;101413.22;;;6.71;100.00
64827;BME280;51265;53.972;12.286;2023-04-07T07:44:00;101392.97;;;6.72;100.00
64827;BME280;51265;53.972;12.286;2023-04-07T07:46:27;101385.84;;;6.93;100.00
64827;BME280;51265;53.972;12.286;2023-04-07T07:48:53;101383.28;;;7.09;100.00
64827;BME280;51265;53.972;12.286;2023-04-07T07:51:19;101379.00;;;7.18;100.00
64827;BME280;51265;53.972;12.286;2023-04-07T07:53:46;101360.16;;;7.27;99.39
64827;BME280;51265;53.972;12.286;2023-04-07T07:56:13;101362.22;;;7.36;98.79
64827;BME280;51265;53.972;12.286;2023-04-07T07:58:39;101348.69;;;7.30;98.65
64827;BME280;51265;53.972;12.286;2023-04-07T08:01:06;101354.38;;;7.50;98.15
64827;BME280;51265;53.972;12.286;2023-04-07T08:03:32;101342.28;;;7.46;97.05
64827;BME280;51265;53.972;12.286;2023-04-07T08:05:59;101339.28;;;7.47;96.25
64827;BME280;51265;53.972;12.286;2023-04-07T08:08:26;101344.94;;;7.68;96.46
64827;BME280;51265;53.972;12.286;2023-04-07T08:10:52;101358.84;;;7.93;96.36
64827;BME280;51265;53.972;12.286;2023-04-07T08:13:18;101317.50;;;7.68;94.41
64827;BME280;51265;53.972;12.286;2023-04-07T08:15:45;101296.03;;;7.55;93.43
64827;BME280;51265;53.972;12.286;2023-04-07T08:18:11;101299.25;;;7.46;93.79
64827;BME280;51265;53.972;12.286;2023-04-07T08:20:38;101311.97;;;7.58;94.06
64827;BME280;51265;53.972;12.286;2023-04-07T08:23:04;101328.13;;;7.91;93.76
64827;BME280;51265;53.972;12.286;2023-04-07T08:25:45;101332.88;;;8.54;92.12
64827;BME280;51265;53.972;12.286;2023-04-07T08:28:11;101319.84;;;8.91;90.14
64827;BME280;51265;53.972;12.286;2023-04-07T08:30:37;101284.69;;;9.04;87.53
64827;BME280;51265;53.972;12.286;2023-04-07T08:33:05;101256.09;;;8.89;86.26
64827;BME280;51265;53.972;12.286;2023-04-07T08:35:31;101227.75;;;8.68;85.48
64827;BME280;51265;53.972;12.286;2023-04-07T08:37:58;101223.31;;;8.47;85.58
64827;BME280;51265;53.972;12.286;2023-04-07T08:40:24;101225.50;;;8.45;85.47
64827;BME280;51265;53.972;12.286;2023-04-07T08:42:50;101194.34;;;8.09;84.49
64827;BME280;51265;53.972;12.286;2023-04-07T08:45:18;101199.22;;;7.96;84.89
64827;BME280;51265;53.972;12.286;2023-04-07T08:47:45;101206.94;;;8.05;85.09
64827;BME280;51265;53.972;12.286;2023-04-07T08:50:16;101191.00;;;8.02;85.00
64827;BME280;51265;53.972;12.286;2023-04-07T08:52:49;101208.13;;;8.29;84.44
64827;BME280;51265;53.972;12.286;2023-04-07T08:55:16;101219.22;;;8.50;84.71
64827;BME280;51265;53.972;12.286;2023-04-07T08:57:44;101202.22;;;8.58;84.25
64827;BME280;51265;53.972;12.286;2023-04-07T09:00:11;101151.50;;;7.97;83.06
64827;BME280;51265;53.972;12.286;2023-04-07T09:02:41;101164.69;;;8.06;83.41
64827;BME280;51265;53.972;12.286;2023-04-07T09:05:13;101180.91;;;8.12;83.90
64827;BME280;51265;53.972;12.286;2023-04-07T09:07:40;101184.34;;;8.45;83.15
64827;BME280;51265;53.972;12.286;2023-04-07T09:10:08;101205.00;;;8.88;83.00
64827;BME280;51265;53.972;12.286;2023-04-07T09:12:35;101193.19;;;9.08;81.65
64827;BME280;51265;53.972;12.286;2023-04-07T09:15:04;101175.31;;;9.31;80.40
64827;BME280;51265;53.972;12.286;2023-04-07T09:17:31;101129.72;;;9.10;79.07
64827;BME280;51265;53.972;12.286;2023-04-07T09:19:59;101122.31;;;9.05;79.03
64827;BME280;51265;53.972;12.286;2023-04-07T09:22:39;101117.66;;;8.95;78.40
64827;BME280;51265;53.972;12.286;2023-04-07T09:27:39;101118.72;;;8.69;79.58
64827;BME280;51265;53.972;12.286;2023-04-07T09:30:11;101127.25;;;8.78;79.47
64827;BME280;51265;53.972;12.286;2023-04-07T09:32:38;101117.63;;;9.01;78.63
64827;BME280;51265;53.972;12.286;2023-04-07T09:35:04;101102.78;;;9.02;78.16
64827;BME280;51265;53.972;12.286;2023-04-07T09:37:31;101095.09;;;8.98;77.97
64827;BME280;51265;53.972;12.286;2023-04-07T09:39:57;101079.47;;;8.99;77.87
64827;BME280;51265;53.972;12.286;2023-04-07T09:42:24;101047.38;;;8.48;77.30
64827;BME280;51265;53.972;12.286;2023-04-07T09:44:52;101060.25;;;8.43;77.63
64827;BME280;51265;53.972;12.286;2023-04-07T09:47:25;101080.84;;;8.61;77.93
64827;BME280;51265;53.972;12.286;2023-04-07T09:49:53;101056.91;;;8.26;78.63
64827;BME280;51265;53.972;12.286;2023-04-07T09:52:49;101088.97;;;7.99;80.98
64827;BME280;51265;53.972;12.286;2023-04-07T09:55:21;101106.72;;;7.77;82.32
64827;BME280;51265;53.972;12.286;2023-04-07T09:57:49;101124.53;;;7.74;83.23
64827;BME280;51265;53.972;12.286;2023-04-07T10:00:16;101139.06;;;7.69;84.16
64827;BME280;51265;53.972;12.286;2023-04-07T10:02:43;101134.28;;;7.49;84.70
64827;BME280;51265;53.972;12.286;2023-04-07T10:05:10;101150.72;;;7.49;85.38
64827;BME280;51265;53.972;12.286;2023-04-07T10:07:36;101144.03;;;7.35;85.40
64827;BME280;51265;53.972;12.286;2023-04-07T10:10:03;101164.94;;;7.41;86.59
64827;BME280;51265;53.972;12.286;2023-04-07T10:12:41;101157.63;;;7.15;86.20
64827;BME280;51265;53.972;12.286;2023-04-07T10:15:11;101165.34;;;7.23;86.82
64827;BME280;51265;53.972;12.286;2023-04-07T10:17:44;101163.50;;;6.96;87.27
64827;BME280;51265;53.972;12.286;2023-04-07T10:20:14;101185.41;;;6.96;88.46
64827;BME280;51265;53.972;12.286;2023-04-07T10:22:43;101198.84;;;6.98;89.16
64827;BME280;51265;53.972;12.286;2023-04-07T10:25:13;101185.22;;;6.76;89.15
64827;BME280;51265;53.972;12.286;2023-04-07T10:27:48;101191.03;;;6.53;89.69
64827;BME280;51265;53.972;12.286;2023-04-07T10:30:28;101186.03;;;6.22;91.54
64827;BME280;51265;53.972;12.286;2023-04-07T10:32:56;101227.53;;;6.36;92.55
64827;BME280;51265;53.972;12.286;2023-04-07T10:35:23;101265.47;;;6.55;93.30
64827;BME280;51265;53.972;12.286;2023-04-07T10:38:08;101268.34;;;6.65;93.56
64827;BME280;51265;53.972;12.286;2023-04-07T10:40:44;101266.63;;;6.59;94.08
64827;BME280;51265;53.972;12.286;2023-04-07T10:43:10;101268.28;;;6.60;94.70
64827;BME280;51265;53.972;12.286;2023-04-07T10:48:24;101273.97;;;6.31;96.45
64827;BME280;51265;53.972;12.286;2023-04-07T10:51:13;101292.91;;;6.38;96.08
64827;BME280;51265;53.972;12.286;2023-04-07T10:59:32;101304.13;;;6.58;96.89
64827;BME280;51265;53.972;12.286;2023-04-07T11:04:39;101298.00;;;6.73;95.43
64827;BME280;51265;53.972;12.286;2023-04-07T11:07:06;101286.59;;;6.59;95.32
64827;BME280;51265;53.972;12.286;2023-04-07T11:09:32;101292.34;;;6.58;95.86
64827;BME280;51265;53.972;12.286;2023-04-07T11:11:59;101301.13;;;6.60;96.01
64827;BME280;51265;53.972;12.286;2023-04-07T11:14:29;101307.50;;;6.65;96.58
64827;BME280;51265;53.972;12.286;2023-04-07T11:16:56;101317.78;;;6.80;96.69
64827;BME280;51265;53.972;12.286;2023-04-07T11:19:23;101296.63;;;6.48;96.88
64827;BME280;51265;53.972;12.286;2023-04-07T11:21:49;101300.88;;;6.39;97.04
64827;BME280;51265;53.972;12.286;2023-04-07T11:24:32;101310.38;;;6.32;97.81
64827;BME280;51265;53.972;12.286;2023-04-07T11:26:59;101307.91;;;6.13;98.32
64827;BME280;51265;53.972;12.286;2023-04-07T11:29:33;101337.72;;;6.32;99.82
64827;BME280;51265;53.972;12.286;2023-04-07T11:32:01;101336.91;;;6.14;99.86
64827;BME280;51265;53.972;12.286;2023-04-07T11:34:29;101339.78;;;6.03;100.00
64827;BME280;51265;53.972;12.286;2023-04-07T11:36:56;101356.50;;;6.06;100.00
64827;BME280;51265;53.972;12.286;2023-04-07T11:39:25;101360.31;;;6.05;100.00
64827;BME280;51265;53.972;12.286;2023-04-07T11:41:58;101364.47;;;6.08;100.00
64827;BME280;51265;53.972;12.286;2023-04-07T11:44:24;101359.47;;;5.88;100.00
64827;BME280;51265;53.972;12.286;2023-04-07T11:46:56;101375.75;;;5.94;100.00
64827;BME280;51265;53.972;12.286;2023-04-07T11:49:25;101371.56;;;5.75;100.00
64827;BME280;51265;53.972;12.286;2023-04-07T11:52:00;101389.28;;;5.72;100.00
64827;BME280;51265;53.972;12.286;2023-04-07T11:54:45;101377.00;;;5.41;100.00
64827;BME280;51265;53.972;12.286;2023-04-07T11:57:13;101393.06;;;5.38;100.00
64827;BME280;51265;53.972;12.286;2023-04-07T11:59:40;101391.06;;;5.33;100.00
64827;BME280;51265;53.972;12.286;2023-04-07T12:02:07;101402.13;;;5.27;100.00
64827;BME280;51265;53.972;12.286;2023-04-07T12:04:33;101399.25;;;5.05;100.00
64827;BME280;51265;53.972;12.286;2023-04-07T12:07:19;101408.66;;;4.97;100.00
64827;BME280;51265;53.972;12.286;2023-04-07T12:09:46;101407.16;;;4.89;100.00
64827;BME280;51265;53.972;12.286;2023-04-07T12:12:12;101419.69;;;5.02;100.00
64827;BME280;51265;53.972;12.286;2023-04-07T12:14:39;101426.78;;;5.15;100.00
64827;BME280;51265;53.972;12.286;2023-04-07T12:17:05;101431.84;;;5.23;100.00
64827;BME280;51265;53.972;12.286;2023-04-07T12:19:33;101439.41;;;5.33;100.00
64827;BME280;51265;53.972;12.286;2023-04-07T12:22:00;101442.88;;;5.57;100.00
64827;BME280;51265;53.972;12.286;2023-04-07T12:24:27;101439.06;;;5.74;100.00
64827;BME280;51265;53.972;12.286;2023-04-07T12:26:53;101444.66;;;5.96;100.00
64827;BME280;51265;53.972;12.286;2023-04-07T12:29:20;101415.91;;;5.77;100.00
64827;BME280;51265;53.972;12.286;2023-04-07T12:31:46;101418.44;;;5.67;100.00
64827;BME280;51265;53.972;12.286;2023-04-07T12:34:13;101426.72;;;5.72;100.00
64827;BME280;51265;53.972;12.286;2023-04-07T12:36:40;101424.38;;;5.64;100.00
64827;BME280;51265;53.972;12.286;2023-04-07T12:39:06;101429.84;;;5.64;100.00
64827;BME280;51265;53.972;12.286;2023-04-07T12:41:32;101439.16;;;5.80;100.00
64827;BME280;51265;53.972;12.286;2023-04-07T12:43:59;101436.13;;;5.93;100.00
64827;BME280;51265;53.972;12.286;2023-04-07T12:46:25;101451.56;;;6.16;100.00
64827;BME280;51265;53.972;12.286;2023-04-07T12:48:52;101428.44;;;6.07;100.00
64827;BME280;51265;53.972;12.286;2023-04-07T12:51:19;101441.34;;;6.28;100.00
64827;BME280;51265;53.972;12.286;2023-04-07T12:53:45;101433.06;;;6.23;100.00
64827;BME280;51265;53.972;12.286;2023-04-07T12:56:12;101429.59;;;6.11;100.00
64827;BME280;51265;53.972;12.286;2023-04-07T12:58:39;101438.28;;;6.08;100.00
64827;BME280;51265;53.972;12.286;2023-04-07T13:01:06;101437.22;;;5.92;100.00
64827;BME280;51265;53.972;12.286;2023-04-07T13:03:32;101445.63;;;5.90;100.00
64827;BME280;51265;53.972;12.286;2023-04-07T13:05:59;101448.16;;;5.92;100.00
64827;BME280;51265;53.972;12.286;2023-04-07T13:08:27;101429.28;;;5.62;100.00